createdAt,value
2023-07-02T00:01:09.662Z,18.67
2023-07-02T00:04:34.821Z,18.65
2023-07-02T00:07:59.986Z,18.67
2023-07-02T00:11:25.077Z,18.67
2023-07-02T00:14:50.257Z,18.639999
2023-07-02T00:18:15.449Z,18.629999
2023-07-02T00:21:40.602Z,18.610001
2023-07-02T00:25:05.794Z,18.559999
2023-07-02T00:28:30.924Z,18.530001
2023-07-02T00:31:56.088Z,18.530001
2023-07-02T00:35:21.279Z,18.530001
2023-07-02T00:38:46.418Z,18.530001
2023-07-02T00:42:11.567Z,18.540001
2023-07-02T00:45:36.767Z,18.540001
2023-07-02T00:49:01.927Z,18.52
2023-07-02T00:52:27.120Z,18.530001
2023-07-02T00:55:52.311Z,18.51
2023-07-02T00:59:17.472Z,18.51
2023-07-02T01:02:42.694Z,18.549999
2023-07-02T01:06:07.797Z,18.58
2023-07-02T01:09:32.984Z,18.59
2023-07-02T01:12:58.151Z,18.59
2023-07-02T01:16:23.377Z,18.59
2023-07-02T01:19:48.544Z,18.57
2023-07-02T01:23:13.706Z,18.559999
2023-07-02T01:26:38.912Z,18.57
2023-07-02T01:30:04.043Z,18.549999
2023-07-02T01:33:29.225Z,18.51
2023-07-02T01:36:54.421Z,18.450001
2023-07-02T01:40:19.600Z,18.33
2023-07-02T01:43:44.778Z,18.200001
2023-07-02T01:47:09.952Z,18.120001
2023-07-02T01:50:35.121Z,18.049999
2023-07-02T01:54:00.308Z,18
2023-07-02T01:57:25.485Z,17.959999
2023-07-02T02:00:50.954Z,17.91
2023-07-02T02:04:15.888Z,17.85
2023-07-02T02:07:41.040Z,17.83
2023-07-02T02:11:06.217Z,17.85
2023-07-02T02:14:31.401Z,17.860001
2023-07-02T02:17:56.619Z,17.889999
2023-07-02T02:21:21.733Z,17.940001
2023-07-02T02:24:46.934Z,17.969999
2023-07-02T02:28:12.107Z,17.99
2023-07-02T02:31:37.332Z,17.98
2023-07-02T02:35:02.525Z,17.98
2023-07-02T02:38:27.714Z,17.99
2023-07-02T02:41:52.917Z,17.99
2023-07-02T02:45:18.085Z,17.959999
2023-07-02T02:48:43.252Z,17.98
2023-07-02T02:52:08.478Z,18
2023-07-02T02:55:33.605Z,18.02
2023-07-02T02:58:58.748Z,18.02
2023-07-02T03:02:23.973Z,18
2023-07-02T03:05:49.105Z,18.02
2023-07-02T03:09:14.284Z,18
2023-07-02T03:12:39.415Z,18.030001
2023-07-02T03:16:04.642Z,18.02
2023-07-02T03:19:29.756Z,18
2023-07-02T03:22:54.950Z,17.99
2023-07-02T03:26:20.118Z,17.969999
2023-07-02T03:29:45.260Z,17.959999
2023-07-02T03:33:10.432Z,17.93
2023-07-02T03:36:35.615Z,17.92
2023-07-02T03:40:00.776Z,17.940001
2023-07-02T03:43:25.954Z,17.940001
2023-07-02T03:46:51.114Z,17.959999
2023-07-02T03:50:16.237Z,17.959999
2023-07-02T03:53:41.398Z,17.950001
2023-07-02T03:57:06.591Z,17.959999
2023-07-02T04:00:31.805Z,17.98
2023-07-02T04:03:56.986Z,17.98
2023-07-02T04:07:22.094Z,17.959999
2023-07-02T04:10:47.442Z,17.959999
2023-07-02T04:14:12.443Z,17.950001
2023-07-02T04:17:37.675Z,17.969999
2023-07-02T04:21:02.807Z,17.959999
2023-07-02T04:24:27.974Z,18
2023-07-02T04:27:53.152Z,18.030001
2023-07-02T04:31:18.304Z,18.110001
2023-07-02T04:34:43.486Z,18.18
2023-07-02T04:38:08.614Z,18.18
2023-07-02T04:41:33.785Z,18.17
2023-07-02T04:44:58.932Z,18.18
2023-07-02T04:48:24.147Z,18.190001
2023-07-02T04:51:49.421Z,18.190001
2023-07-02T04:55:14.452Z,18.219999
2023-07-02T04:58:39.607Z,18.360001
2023-07-02T05:02:04.817Z,18.540001
2023-07-02T05:05:29.984Z,18.77
2023-07-02T05:08:55.217Z,18.91
2023-07-02T05:12:20.369Z,18.969999
2023-07-02T05:15:45.554Z,19.120001
2023-07-02T05:19:10.716Z,19.200001
2023-07-02T05:22:35.862Z,19.190001
2023-07-02T05:26:01.086Z,19.17
2023-07-02T05:29:26.219Z,19.16
2023-07-02T05:32:51.397Z,19.16
2023-07-02T05:36:16.550Z,19.17
2023-07-02T05:39:41.725Z,19.16
2023-07-02T05:43:06.921Z,19.059999
2023-07-02T05:46:32.111Z,19
2023-07-02T05:49:57.270Z,18.93
2023-07-02T05:53:22.473Z,18.9
2023-07-02T05:56:47.646Z,18.879999
2023-07-02T06:00:12.844Z,18.889999
2023-07-02T06:03:38.048Z,18.879999
2023-07-02T06:07:03.358Z,18.879999
2023-07-02T06:10:28.702Z,18.91
2023-07-02T06:13:54.268Z,18.98
2023-07-02T06:17:19.649Z,19.049999
2023-07-02T06:20:44.872Z,19.15
2023-07-02T06:24:10.278Z,19.209999
2023-07-02T06:27:35.529Z,19.290001
2023-07-02T06:31:00.927Z,19.33
2023-07-02T06:34:27.624Z,19.41
2023-07-02T06:37:53.229Z,19.450001
2023-07-02T06:41:18.536Z,19.459999
2023-07-02T06:44:43.770Z,19.450001
2023-07-02T06:48:09.102Z,19.48
2023-07-02T06:51:34.285Z,19.52
2023-07-02T06:54:59.439Z,19.540001
2023-07-02T06:58:24.621Z,19.52
2023-07-02T07:01:49.831Z,19.530001
2023-07-02T07:05:14.985Z,19.57
2023-07-02T07:08:40.806Z,19.65
2023-07-02T07:12:05.967Z,19.700001
2023-07-02T07:15:31.169Z,19.73
2023-07-02T07:18:56.342Z,19.76
2023-07-02T07:22:21.712Z,19.809999
2023-07-02T07:25:46.921Z,19.9
2023-07-02T07:29:12.138Z,19.969999
2023-07-02T07:32:37.389Z,19.99
2023-07-02T07:36:02.548Z,19.959999
2023-07-02T07:39:27.829Z,19.92
2023-07-02T07:42:53.036Z,19.889999
2023-07-02T07:46:18.206Z,19.93
2023-07-02T07:49:43.363Z,19.969999
2023-07-02T07:53:08.544Z,20
2023-07-02T07:56:33.823Z,19.959999
2023-07-02T07:59:59.042Z,20.17
2023-07-02T08:03:24.303Z,20.49
2023-07-02T08:06:49.450Z,20.809999
2023-07-02T08:10:14.602Z,20.99
2023-07-02T08:13:39.815Z,21.129999
2023-07-02T08:17:05.107Z,21.27
2023-07-02T08:20:30.305Z,21.440001
2023-07-02T08:23:55.560Z,21.58
2023-07-02T08:27:20.752Z,21.76
2023-07-02T08:30:45.941Z,21.690001
2023-07-02T08:34:11.158Z,21.66
2023-07-02T08:37:36.288Z,21.77
2023-07-02T08:41:01.436Z,21.85
2023-07-02T08:44:26.641Z,21.83
2023-07-02T08:47:51.978Z,21.84
2023-07-02T08:51:18.404Z,21.76
2023-07-02T08:54:42.185Z,21.700001
2023-07-02T08:58:07.355Z,21.75
2023-07-02T09:01:32.705Z,21.719999
2023-07-02T09:04:57.875Z,21.629999
2023-07-02T09:08:23.038Z,21.66
2023-07-02T09:11:48.270Z,21.780001
2023-07-02T09:15:13.643Z,21.98
2023-07-02T09:18:38.802Z,22.059999
2023-07-02T09:22:04.017Z,22.18
2023-07-02T09:25:29.212Z,22.42
2023-07-02T09:28:54.373Z,22.549999
2023-07-02T09:32:19.554Z,22.76
2023-07-02T09:35:44.759Z,22.73
2023-07-02T09:39:09.918Z,22.57
2023-07-02T09:42:35.137Z,22.52
2023-07-02T09:46:00.316Z,22.65
2023-07-02T09:49:25.462Z,22.879999
2023-07-02T09:52:50.636Z,23.040001
2023-07-02T09:56:15.817Z,23.02
2023-07-02T09:59:41.054Z,22.82
2023-07-02T10:03:06.249Z,22.5
2023-07-02T10:06:31.410Z,22.309999
2023-07-02T10:09:56.584Z,22.219999
2023-07-02T10:13:21.739Z,22.17
2023-07-02T10:16:46.932Z,22.17
2023-07-02T10:20:12.093Z,22.43
2023-07-02T10:23:37.282Z,22.879999
2023-07-02T10:27:02.475Z,23.02
2023-07-02T10:30:27.635Z,22.83
2023-07-02T10:33:52.885Z,22.620001
2023-07-02T10:37:18.007Z,22.620001
2023-07-02T10:40:43.177Z,22.780001
2023-07-02T10:44:08.365Z,22.879999
2023-07-02T10:47:33.569Z,23.120001
2023-07-02T10:50:58.731Z,23.280001
2023-07-02T10:54:23.902Z,23.35
2023-07-02T10:57:49.103Z,23.33
2023-07-02T11:01:14.277Z,23.27
2023-07-02T11:04:39.473Z,23.209999
2023-07-02T11:08:04.633Z,23.190001
2023-07-02T11:11:29.828Z,23.219999
2023-07-02T11:14:55.004Z,23.139999
2023-07-02T11:18:20.268Z,23.370001
2023-07-02T11:21:45.379Z,23.5
2023-07-02T11:25:10.587Z,23.4
2023-07-02T11:28:37.514Z,23.280001
2023-07-02T11:32:00.857Z,23.23
2023-07-02T11:35:26.062Z,23.309999
2023-07-02T11:38:51.278Z,23.549999
2023-07-02T11:42:16.480Z,23.65
2023-07-02T11:45:41.624Z,23.620001
2023-07-02T11:49:06.794Z,23.58
2023-07-02T11:52:31.965Z,23.389999
2023-07-02T11:55:57.148Z,23.23
2023-07-02T11:59:22.327Z,23.15
2023-07-02T12:02:47.538Z,23.15
2023-07-02T12:06:12.641Z,23.16
2023-07-02T12:09:37.808Z,23.17
2023-07-02T12:13:02.984Z,23.08
2023-07-02T12:16:28.186Z,22.950001
2023-07-02T12:19:53.338Z,22.77
2023-07-02T12:23:18.488Z,22.57
2023-07-02T12:26:43.676Z,22.49
2023-07-02T12:30:08.850Z,22.58
2023-07-02T12:33:34.075Z,22.620001
2023-07-02T12:36:59.225Z,22.65
2023-07-02T12:40:24.388Z,22.67
2023-07-02T12:43:49.559Z,22.639999
2023-07-02T12:47:14.718Z,22.549999
2023-07-02T12:50:39.943Z,22.459999
2023-07-02T12:54:05.088Z,22.66
2023-07-02T12:57:30.245Z,22.959999
2023-07-02T13:00:55.414Z,23.120001
2023-07-02T13:04:20.642Z,23.120001
2023-07-02T13:07:45.762Z,23.059999
2023-07-02T13:11:10.922Z,22.969999
2023-07-02T13:14:36.066Z,22.879999
2023-07-02T13:18:01.271Z,22.82
2023-07-02T13:21:26.398Z,22.82
2023-07-02T13:24:51.614Z,22.799999
2023-07-02T13:28:16.751Z,22.75
2023-07-02T13:31:41.963Z,22.690001
2023-07-02T13:35:07.084Z,22.65
2023-07-02T13:38:32.259Z,22.66
2023-07-02T13:41:57.433Z,22.73
2023-07-02T13:45:22.581Z,22.75
2023-07-02T13:48:47.753Z,22.93
2023-07-02T13:52:12.921Z,23.110001
2023-07-02T13:55:38.080Z,23.15
2023-07-02T13:59:03.269Z,23.16
2023-07-02T14:02:28.432Z,23.09
2023-07-02T14:05:53.679Z,23.059999
2023-07-02T14:09:18.751Z,23
2023-07-02T14:12:43.927Z,23
2023-07-02T14:16:09.167Z,22.93
2023-07-02T14:19:34.265Z,22.870001
2023-07-02T14:22:59.436Z,22.91
2023-07-02T14:26:24.609Z,22.91
2023-07-02T14:29:49.784Z,22.92
2023-07-02T14:33:14.999Z,22.860001
2023-07-02T14:36:40.181Z,22.860001
2023-07-02T14:40:13.705Z,22.84
2023-07-02T14:43:30.509Z,22.82
2023-07-02T14:46:55.771Z,22.77
2023-07-02T14:50:20.911Z,22.790001
2023-07-02T14:53:46.087Z,22.75
2023-07-02T14:57:11.242Z,22.76
2023-07-02T15:00:36.435Z,22.719999
2023-07-02T15:04:01.750Z,22.68
2023-07-02T15:07:26.838Z,22.68
2023-07-02T15:10:51.976Z,22.709999
2023-07-02T15:45:20.097Z,20.450001
2023-07-02T15:48:45.235Z,21.33
2023-07-02T15:52:10.432Z,21.52
2023-07-02T15:55:35.609Z,21.73
2023-07-02T15:59:00.782Z,21.9
2023-07-02T16:02:26.006Z,22.02
2023-07-02T16:05:52.747Z,22.049999
2023-07-02T16:09:16.297Z,22.09
2023-07-02T16:12:41.478Z,22.07
2023-07-02T16:16:06.694Z,22.139999
2023-07-02T16:19:31.908Z,22.24
2023-07-02T16:22:57.060Z,22.299999
2023-07-02T16:26:22.238Z,22.280001
2023-07-02T16:29:47.407Z,22.200001
2023-07-02T16:33:12.558Z,22.15
2023-07-02T16:36:37.765Z,22.15
2023-07-02T16:40:02.966Z,22.129999
2023-07-02T16:43:28.130Z,22.16
2023-07-02T16:46:53.305Z,22.16
2023-07-02T16:50:18.478Z,22.129999
2023-07-02T16:53:43.701Z,22.139999
2023-07-02T16:57:08.838Z,22.15
2023-07-02T17:00:34.036Z,22.110001
2023-07-02T17:03:59.424Z,22.040001
2023-07-02T17:07:24.361Z,21.99
2023-07-02T17:10:49.560Z,21.98
2023-07-02T17:14:14.736Z,22.01
2023-07-02T17:17:39.936Z,22.049999
2023-07-02T17:21:05.090Z,22.040001
2023-07-02T17:24:30.342Z,22.01
2023-07-02T17:27:55.665Z,21.969999
2023-07-02T17:31:20.927Z,21.940001
2023-07-02T17:34:46.117Z,21.889999
2023-07-02T17:38:11.503Z,21.85
2023-07-02T17:41:37.089Z,21.84
2023-07-02T17:45:02.339Z,21.85
2023-07-02T17:48:27.672Z,21.790001
2023-07-02T17:51:52.760Z,21.75
2023-07-02T17:55:18.019Z,21.709999
2023-07-02T17:58:43.704Z,21.67
2023-07-02T18:02:08.974Z,21.66
2023-07-02T18:05:34.296Z,21.66
2023-07-02T18:09:01.650Z,21.629999
2023-07-02T18:12:26.925Z,21.59
2023-07-02T18:15:52.693Z,21.559999
2023-07-02T18:19:17.479Z,21.52
2023-07-02T18:22:42.732Z,21.49
2023-07-02T18:26:07.932Z,21.5
2023-07-02T18:29:33.240Z,21.49
2023-07-02T18:32:58.891Z,21.469999
2023-07-02T18:36:23.718Z,21.440001
2023-07-02T18:39:48.924Z,21.42
2023-07-02T18:43:14.182Z,21.4
2023-07-02T18:46:39.427Z,21.370001
2023-07-02T18:50:04.661Z,21.35
2023-07-02T18:53:29.921Z,21.290001
2023-07-02T18:56:55.118Z,21.24
2023-07-02T19:00:20.402Z,21.209999
2023-07-02T19:03:45.703Z,21.190001
2023-07-02T19:07:10.971Z,21.120001
2023-07-02T19:10:37.759Z,21.02
2023-07-02T19:14:01.494Z,20.92
2023-07-02T19:17:26.752Z,20.809999
2023-07-02T19:20:52.005Z,20.700001
2023-07-02T19:24:17.284Z,20.610001
2023-07-02T19:27:42.581Z,20.549999
2023-07-02T19:31:07.839Z,20.49
2023-07-02T19:34:33.042Z,20.41
2023-07-02T19:37:58.311Z,20.35
2023-07-02T19:41:23.532Z,20.299999
2023-07-02T19:44:48.843Z,20.26
2023-07-02T19:48:14.068Z,20.219999
2023-07-02T19:51:39.337Z,20.15
2023-07-02T19:55:04.572Z,20.120001
2023-07-02T19:58:29.787Z,20.049999
2023-07-02T20:01:55.080Z,19.969999
2023-07-02T20:05:20.364Z,19.889999
2023-07-02T20:08:45.539Z,19.85
2023-07-02T20:12:10.765Z,19.83
2023-07-02T20:15:36.010Z,19.780001
2023-07-02T20:19:01.276Z,19.73
2023-07-02T20:22:26.514Z,19.67
2023-07-02T20:25:51.736Z,19.59
2023-07-02T20:29:16.984Z,19.52
2023-07-02T20:32:42.234Z,19.48
2023-07-02T20:36:07.593Z,19.450001
2023-07-02T20:39:32.719Z,19.459999
2023-07-02T20:42:58.010Z,19.440001
2023-07-02T20:46:23.293Z,19.370001
2023-07-02T20:49:48.530Z,19.309999
2023-07-02T20:53:13.804Z,19.23
2023-07-02T20:56:39.055Z,19.139999
2023-07-02T21:00:04.250Z,19.07
2023-07-02T21:03:29.560Z,19.01
2023-07-02T21:06:54.722Z,18.950001
2023-07-02T21:10:19.987Z,18.879999
2023-07-02T21:13:45.221Z,18.870001
2023-07-02T21:17:10.433Z,18.879999
2023-07-02T21:20:35.654Z,18.85
2023-07-02T21:24:00.931Z,18.83
2023-07-02T21:27:26.202Z,18.799999
2023-07-02T21:30:51.425Z,18.799999
2023-07-02T21:34:16.677Z,18.799999
2023-07-02T21:37:41.923Z,18.809999
2023-07-02T21:41:07.184Z,18.809999
2023-07-02T21:44:32.442Z,18.83
2023-07-02T21:47:57.676Z,18.84
2023-07-02T21:51:22.972Z,18.860001
2023-07-02T21:54:48.219Z,18.83
2023-07-02T21:58:13.413Z,18.77
2023-07-02T22:01:38.715Z,18.73
2023-07-02T22:05:03.926Z,18.68
2023-07-02T22:08:29.135Z,18.66
2023-07-02T22:11:54.373Z,18.620001
2023-07-02T22:15:19.602Z,18.610001
2023-07-02T22:18:44.865Z,18.559999
2023-07-02T22:22:10.064Z,18.51
2023-07-02T22:25:35.285Z,18.450001
2023-07-02T22:29:00.532Z,18.4
2023-07-02T22:32:25.826Z,18.34
2023-07-02T22:35:51.189Z,18.32
2023-07-02T22:39:16.278Z,18.309999
2023-07-02T22:42:41.521Z,18.309999
2023-07-02T22:46:06.814Z,18.299999
2023-07-02T22:49:32.024Z,18.290001
2023-07-02T22:52:57.330Z,18.299999
2023-07-02T22:56:22.510Z,18.299999
2023-07-02T22:59:47.743Z,18.280001
2023-07-02T23:03:13.079Z,18.25
2023-07-02T23:06:38.298Z,18.200001
2023-07-02T23:10:03.569Z,18.129999
2023-07-02T23:13:28.799Z,18.07
2023-07-02T23:16:54.062Z,18.02
2023-07-02T23:20:19.285Z,17.98
2023-07-02T23:23:44.528Z,17.92
2023-07-02T23:27:09.818Z,17.870001
2023-07-02T23:30:35.143Z,17.790001
2023-07-02T23:34:00.285Z,17.719999
2023-07-02T23:37:25.528Z,17.690001
2023-07-02T23:40:50.773Z,17.639999
2023-07-02T23:44:16.026Z,17.59
2023-07-02T23:47:41.265Z,17.549999
2023-07-02T23:51:06.459Z,17.530001
2023-07-02T23:54:31.703Z,17.559999
2023-07-02T23:57:56.950Z,17.549999
